sensor_id;sensor_type;location;lat;lon;timestamp;pressure;altitude;pressure_sealevel;temperature;humidity
69971;BME280;57301;50.328;8.542;2023-05-03T00:01:20;99576.59;;;2.29;90.72
69971;BME280;57301;50.328;8.542;2023-05-03T00:03:47;99575.81;;;2.27;90.31
69971;BME280;57301;50.328;8.542;2023-05-03T00:06:16;99566.38;;;2.23;89.93
69971;BME280;57301;50.328;8.542;2023-05-03T00:08:42;99570.06;;;2.19;89.79
69971;BME280;57301;50.328;8.542;2023-05-03T00:11:09;99568.69;;;2.11;90.33
69971;BME280;57301;50.328;8.542;2023-05-03T00:13:36;99564.25;;;2.12;89.72
69971;BME280;57301;50.328;8.542;2023-05-03T00:16:02;99569.41;;;2.15;89.45
69971;BME280;57301;50.328;8.542;2023-05-03T00:18:29;99562.66;;;2.09;89.57
69971;BME280;57301;50.328;8.542;2023-05-03T00:20:57;99561.59;;;1.95;89.68
69971;BME280;57301;50.328;8.542;2023-05-03T00:23:25;99560.59;;;1.97;89.51
69971;BME280;57301;50.328;8.542;2023-05-03T00:25:52;99555.19;;;2.00;89.30
69971;BME280;57301;50.328;8.542;2023-05-03T00:28:19;99547.78;;;1.89;89.45
69971;BME280;57301;50.328;8.542;2023-05-03T00:30:45;99556.78;;;1.85;89.99
69971;BME280;57301;50.328;8.542;2023-05-03T00:33:12;99565.31;;;1.91;89.66
69971;BME280;57301;50.328;8.542;2023-05-03T00:35:39;99559.31;;;1.87;89.68
69971;BME280;57301;50.328;8.542;2023-05-03T00:38:05;99553.94;;;1.71;90.03
69971;BME280;57301;50.328;8.542;2023-05-03T00:40:32;99553.31;;;1.66;90.68
69971;BME280;57301;50.328;8.542;2023-05-03T00:42:58;99559.34;;;1.68;90.32
69971;BME280;57301;50.328;8.542;2023-05-03T00:45:24;99554.78;;;1.72;90.17
69971;BME280;57301;50.328;8.542;2023-05-03T00:47:51;99555.31;;;1.61;89.94
69971;BME280;57301;50.328;8.542;2023-05-03T00:50:19;99547.53;;;1.58;91.16
69971;BME280;57301;50.328;8.542;2023-05-03T00:52:46;99538.31;;;1.49;91.33
69971;BME280;57301;50.328;8.542;2023-05-03T00:55:13;99537.53;;;1.47;90.85
69971;BME280;57301;50.328;8.542;2023-05-03T00:57:40;99536.75;;;1.45;91.38
69971;BME280;57301;50.328;8.542;2023-05-03T01:00:07;99539.19;;;1.50;91.09
69971;BME280;57301;50.328;8.542;2023-05-03T01:02:38;99532.63;;;1.40;91.88
69971;BME280;57301;50.328;8.542;2023-05-03T01:05:05;99533.16;;;1.29;92.12
69971;BME280;57301;50.328;8.542;2023-05-03T01:08:02;99531.66;;;1.23;92.61
69971;BME280;57301;50.328;8.542;2023-05-03T01:10:39;99527.72;;;1.32;92.10
69971;BME280;57301;50.328;8.542;2023-05-03T01:13:23;99531.41;;;1.28;92.16
69971;BME280;57301;50.328;8.542;2023-05-03T01:16:00;99527.00;;;1.28;91.64
69971;BME280;57301;50.328;8.542;2023-05-03T01:18:30;99524.63;;;1.24;91.69
69971;BME280;57301;50.328;8.542;2023-05-03T01:21:01;99525.09;;;1.13;92.47
69971;BME280;57301;50.328;8.542;2023-05-03T01:26:22;99523.50;;;1.09;92.30
69971;BME280;57301;50.328;8.542;2023-05-03T01:28:49;99529.56;;;1.11;91.84
69971;BME280;57301;50.328;8.542;2023-05-03T01:34:28;99524.91;;;0.97;92.35
69971;BME280;57301;50.328;8.542;2023-05-03T01:36:58;99526.00;;;0.93;92.98
69971;BME280;57301;50.328;8.542;2023-05-03T01:39:34;99533.03;;;0.93;92.62
69971;BME280;57301;50.328;8.542;2023-05-03T01:42:03;99528.16;;;0.84;92.81
69971;BME280;57301;50.328;8.542;2023-05-03T01:44:31;99521.59;;;0.73;93.55
69971;BME280;57301;50.328;8.542;2023-05-03T01:46:58;99519.03;;;0.72;93.54
69971;BME280;57301;50.328;8.542;2023-05-03T01:49:24;99521.47;;;0.76;92.66
69971;BME280;57301;50.328;8.542;2023-05-03T01:51:51;99517.59;;;0.65;93.83
69971;BME280;57301;50.328;8.542;2023-05-03T01:54:17;99515.75;;;0.67;92.70
69971;BME280;57301;50.328;8.542;2023-05-03T01:56:44;99524.13;;;0.56;93.98
69971;BME280;57301;50.328;8.542;2023-05-03T01:59:12;99528.03;;;0.46;93.99
69971;BME280;57301;50.328;8.542;2023-05-03T02:01:38;99520.84;;;0.51;94.66
69971;BME280;57301;50.328;8.542;2023-05-03T02:04:05;99527.19;;;0.45;94.26
69971;BME280;57301;50.328;8.542;2023-05-03T02:06:31;99524.94;;;0.36;95.41
69971;BME280;57301;50.328;8.542;2023-05-03T02:08:58;99525.16;;;0.32;95.12
69971;BME280;57301;50.328;8.542;2023-05-03T02:11:24;99528.50;;;0.35;95.16
69971;BME280;57301;50.328;8.542;2023-05-03T02:13:51;99533.81;;;0.34;95.09
69971;BME280;57301;50.328;8.542;2023-05-03T02:16:17;99535.41;;;0.38;94.72
69971;BME280;57301;50.328;8.542;2023-05-03T02:18:44;99540.91;;;0.32;94.71
69971;BME280;57301;50.328;8.542;2023-05-03T02:21:11;99545.66;;;0.22;95.36
69971;BME280;57301;50.328;8.542;2023-05-03T02:23:38;99545.53;;;0.25;95.81
69971;BME280;57301;50.328;8.542;2023-05-03T02:26:04;99541.00;;;0.29;95.06
69971;BME280;57301;50.328;8.542;2023-05-03T02:28:31;99554.88;;;0.52;94.34
69971;BME280;57301;50.328;8.542;2023-05-03T02:30:58;99561.31;;;0.45;93.41
69971;BME280;57301;50.328;8.542;2023-05-03T02:33:24;99562.22;;;0.44;93.23
69971;BME280;57301;50.328;8.542;2023-05-03T02:35:51;99553.88;;;0.35;93.17
69971;BME280;57301;50.328;8.542;2023-05-03T02:38:17;99560.41;;;0.24;93.24
69971;BME280;57301;50.328;8.542;2023-05-03T02:40:44;99574.56;;;0.20;93.93
69971;BME280;57301;50.328;8.542;2023-05-03T02:43:10;99564.09;;;0.20;94.14
69971;BME280;57301;50.328;8.542;2023-05-03T02:45:37;99564.16;;;0.19;93.99
69971;BME280;57301;50.328;8.542;2023-05-03T02:48:04;99556.53;;;0.13;94.38
69971;BME280;57301;50.328;8.542;2023-05-03T02:50:31;99545.06;;;0.15;93.80
69971;BME280;57301;50.328;8.542;2023-05-03T02:52:57;99551.28;;;0.13;93.42
69971;BME280;57301;50.328;8.542;2023-05-03T02:55:24;99547.78;;;0.12;93.73
69971;BME280;57301;50.328;8.542;2023-05-03T02:57:50;99545.38;;;0.08;93.87
69971;BME280;57301;50.328;8.542;2023-05-03T03:00:17;99556.72;;;0.08;93.81
69971;BME280;57301;50.328;8.542;2023-05-03T03:02:44;99555.91;;;0.06;93.19
69971;BME280;57301;50.328;8.542;2023-05-03T03:05:11;99552.50;;;0.04;93.22
69971;BME280;57301;50.328;8.542;2023-05-03T03:07:37;99545.69;;;0.00;94.00
69971;BME280;57301;50.328;8.542;2023-05-03T03:10:06;99542.41;;;-0.05;94.66
69971;BME280;57301;50.328;8.542;2023-05-03T03:12:35;99544.09;;;-0.04;94.58
69971;BME280;57301;50.328;8.542;2023-05-03T03:15:02;99547.03;;;-0.12;93.58
69971;BME280;57301;50.328;8.542;2023-05-03T03:17:29;99539.81;;;-0.07;94.23
69971;BME280;57301;50.328;8.542;2023-05-03T03:19:56;99533.47;;;-0.01;94.51
69971;BME280;57301;50.328;8.542;2023-05-03T03:22:31;99534.41;;;-0.02;94.13
69971;BME280;57301;50.328;8.542;2023-05-03T03:24:57;99537.81;;;0.00;93.57
69971;BME280;57301;50.328;8.542;2023-05-03T03:27:24;99532.06;;;-0.32;95.27
69971;BME280;57301;50.328;8.542;2023-05-03T03:29:50;99533.59;;;-0.48;95.98
69971;BME280;57301;50.328;8.542;2023-05-03T03:32:17;99530.06;;;-0.47;96.88
69971;BME280;57301;50.328;8.542;2023-05-03T03:34:43;99524.94;;;-0.50;96.41
69971;BME280;57301;50.328;8.542;2023-05-03T03:37:09;99540.78;;;-0.53;96.34
69971;BME280;57301;50.328;8.542;2023-05-03T03:39:36;99536.63;;;-0.59;96.99
69971;BME280;57301;50.328;8.542;2023-05-03T03:42:06;99552.34;;;-0.59;97.13
69971;BME280;57301;50.328;8.542;2023-05-03T03:44:33;99542.84;;;-0.39;96.51
69971;BME280;57301;50.328;8.542;2023-05-03T03:46:59;99551.94;;;-0.26;94.93
69971;BME280;57301;50.328;8.542;2023-05-03T03:49:26;99550.56;;;-0.35;95.57
69971;BME280;57301;50.328;8.542;2023-05-03T03:51:52;99549.81;;;-0.38;95.38
69971;BME280;57301;50.328;8.542;2023-05-03T03:54:19;99539.22;;;-0.35;95.30
69971;BME280;57301;50.328;8.542;2023-05-03T03:56:45;99549.56;;;-0.32;95.58
69971;BME280;57301;50.328;8.542;2023-05-03T03:59:11;99547.88;;;-0.33;95.30
69971;BME280;57301;50.328;8.542;2023-05-03T04:01:38;99546.78;;;-0.28;95.91
69971;BME280;57301;50.328;8.542;2023-05-03T04:04:05;99551.00;;;-0.23;95.85
69971;BME280;57301;50.328;8.542;2023-05-03T04:06:32;99552.69;;;-0.22;95.40
69971;BME280;57301;50.328;8.542;2023-05-03T04:08:58;99556.03;;;-0.19;95.28
69971;BME280;57301;50.328;8.542;2023-05-03T04:11:25;99562.94;;;-0.16;95.05
69971;BME280;57301;50.328;8.542;2023-05-03T04:13:51;99561.94;;;-0.14;94.20
69971;BME280;57301;50.328;8.542;2023-05-03T04:16:18;99570.28;;;-0.26;94.71
69971;BME280;57301;50.328;8.542;2023-05-03T04:18:44;99556.91;;;-0.18;94.67
69971;BME280;57301;50.328;8.542;2023-05-03T04:21:11;99562.38;;;-0.03;94.02
69971;BME280;57301;50.328;8.542;2023-05-03T04:23:38;99573.63;;;0.01;94.02
69971;BME280;57301;50.328;8.542;2023-05-03T04:26:05;99571.78;;;0.03;93.84
69971;BME280;57301;50.328;8.542;2023-05-03T04:28:32;99572.03;;;0.19;93.67
69971;BME280;57301;50.328;8.542;2023-05-03T04:30:59;99571.88;;;0.44;92.66
69971;BME280;57301;50.328;8.542;2023-05-03T04:33:26;99574.50;;;0.64;91.51
69971;BME280;57301;50.328;8.542;2023-05-03T04:35:55;99570.94;;;0.86;90.90
69971;BME280;57301;50.328;8.542;2023-05-03T04:38:21;99576.59;;;1.17;90.58
69971;BME280;57301;50.328;8.542;2023-05-03T04:40:48;99571.97;;;1.41;88.23
69971;BME280;57301;50.328;8.542;2023-05-03T04:43:15;99566.28;;;1.13;89.74
69971;BME280;57301;50.328;8.542;2023-05-03T04:45:41;99564.59;;;1.10;89.77
69971;BME280;57301;50.328;8.542;2023-05-03T04:48:08;99558.25;;;1.34;90.32
69971;BME280;57301;50.328;8.542;2023-05-03T04:50:35;99558.69;;;1.63;88.92
69971;BME280;57301;50.328;8.542;2023-05-03T04:53:01;99559.06;;;1.74;87.64
69971;BME280;57301;50.328;8.542;2023-05-03T04:55:28;99560.63;;;1.78;87.88
69971;BME280;57301;50.328;8.542;2023-05-03T04:57:54;99562.75;;;2.42;86.33
69971;BME280;57301;50.328;8.542;2023-05-03T05:00:21;99569.72;;;2.43;86.78
69971;BME280;57301;50.328;8.542;2023-05-03T05:02:49;99569.09;;;2.90;83.96
69971;BME280;57301;50.328;8.542;2023-05-03T05:05:16;99566.81;;;3.00;83.70
69971;BME280;57301;50.328;8.542;2023-05-03T05:07:45;99574.47;;;2.89;84.55
69971;BME280;57301;50.328;8.542;2023-05-03T05:10:12;99575.91;;;2.94;83.99
69971;BME280;57301;50.328;8.542;2023-05-03T05:12:39;99562.59;;;2.97;84.25
69971;BME280;57301;50.328;8.542;2023-05-03T05:15:06;99568.19;;;2.74;84.89
69971;BME280;57301;50.328;8.542;2023-05-03T05:17:34;99562.81;;;2.93;83.93
69971;BME280;57301;50.328;8.542;2023-05-03T05:20:01;99559.06;;;3.79;81.24
69971;BME280;57301;50.328;8.542;2023-05-03T05:22:28;99567.41;;;4.19;80.44
69971;BME280;57301;50.328;8.542;2023-05-03T05:24:54;99560.97;;;4.69;77.04
69971;BME280;57301;50.328;8.542;2023-05-03T05:27:21;99560.97;;;5.13;75.68
69971;BME280;57301;50.328;8.542;2023-05-03T05:29:48;99564.84;;;5.50;73.86
69971;BME280;57301;50.328;8.542;2023-05-03T05:32:15;99561.09;;;7.02;68.26
69971;BME280;57301;50.328;8.542;2023-05-03T05:34:42;99559.94;;;7.06;66.86
69971;BME280;57301;50.328;8.542;2023-05-03T05:37:11;99559.19;;;8.52;64.81
69971;BME280;57301;50.328;8.542;2023-05-03T05:39:37;99562.22;;;8.48;63.71
69971;BME280;57301;50.328;8.542;2023-05-03T05:42:04;99559.59;;;9.05;61.26
69971;BME280;57301;50.328;8.542;2023-05-03T05:44:30;99564.34;;;9.91;59.50
69971;BME280;57301;50.328;8.542;2023-05-03T05:46:57;99564.69;;;10.32;60.70
69971;BME280;57301;50.328;8.542;2023-05-03T05:49:23;99562.00;;;10.64;58.13
69971;BME280;57301;50.328;8.542;2023-05-03T05:51:50;99566.47;;;10.95;57.26
69971;BME280;57301;50.328;8.542;2023-05-03T05:54:16;99556.06;;;11.74;55.50
69971;BME280;57301;50.328;8.542;2023-05-03T05:56:43;99553.94;;;12.08;53.38
69971;BME280;57301;50.328;8.542;2023-05-03T05:59:09;99543.09;;;13.16;49.37
69971;BME280;57301;50.328;8.542;2023-05-03T06:01:36;99545.81;;;12.97;50.38
69971;BME280;57301;50.328;8.542;2023-05-03T06:04:06;99544.69;;;13.56;49.39
69971;BME280;57301;50.328;8.542;2023-05-03T06:06:33;99548.25;;;13.57;48.50
69971;BME280;57301;50.328;8.542;2023-05-03T06:09:00;99544.41;;;13.87;46.81
69971;BME280;57301;50.328;8.542;2023-05-03T06:11:42;99540.84;;;13.68;47.07
69971;BME280;57301;50.328;8.542;2023-05-03T06:14:08;99539.75;;;14.62;46.08
69971;BME280;57301;50.328;8.542;2023-05-03T06:16:35;99552.44;;;13.03;48.49
69971;BME280;57301;50.328;8.542;2023-05-03T06:19:02;99557.69;;;14.34;45.66
69971;BME280;57301;50.328;8.542;2023-05-03T06:21:30;99559.94;;;14.11;45.40
69971;BME280;57301;50.328;8.542;2023-05-03T06:23:56;99566.19;;;14.29;44.54
69971;BME280;57301;50.328;8.542;2023-05-03T06:26:23;99559.25;;;13.54;46.24
69971;BME280;57301;50.328;8.542;2023-05-03T06:28:50;99563.00;;;13.24;47.92
69971;BME280;57301;50.328;8.542;2023-05-03T06:31:17;99564.28;;;14.49;45.53
69971;BME280;57301;50.328;8.542;2023-05-03T06:33:44;99563.84;;;13.61;47.11
69971;BME280;57301;50.328;8.542;2023-05-03T06:36:11;99563.81;;;13.34;47.58
69971;BME280;57301;50.328;8.542;2023-05-03T06:38:38;99564.66;;;13.34;48.46
69971;BME280;57301;50.328;8.542;2023-05-03T06:41:05;99569.78;;;14.83;44.56
69971;BME280;57301;50.328;8.542;2023-05-03T06:43:31;99559.81;;;14.58;44.49
69971;BME280;57301;50.328;8.542;2023-05-03T06:45:58;99547.56;;;15.69;42.33
69971;BME280;57301;50.328;8.542;2023-05-03T06:48:24;99554.22;;;14.06;46.26
69971;BME280;57301;50.328;8.542;2023-05-03T06:50:51;99553.44;;;13.58;45.98
69971;BME280;57301;50.328;8.542;2023-05-03T06:53:18;99557.47;;;13.44;47.64
69971;BME280;57301;50.328;8.542;2023-05-03T06:55:44;99558.75;;;14.50;45.52
69971;BME280;57301;50.328;8.542;2023-05-03T06:58:11;99551.44;;;14.78;45.01
69971;BME280;57301;50.328;8.542;2023-05-03T07:00:38;99543.69;;;14.93;44.92
69971;BME280;57301;50.328;8.542;2023-05-03T07:03:05;99544.56;;;14.58;44.35
69971;BME280;57301;50.328;8.542;2023-05-03T07:05:32;99545.91;;;14.27;44.55
69971;BME280;57301;50.328;8.542;2023-05-03T07:07:59;99541.25;;;14.64;44.30
69971;BME280;57301;50.328;8.542;2023-05-03T07:10:26;99538.38;;;14.12;45.16
69971;BME280;57301;50.328;8.542;2023-05-03T07:12:57;99541.22;;;15.00;44.28
69971;BME280;57301;50.328;8.542;2023-05-03T07:15:23;99545.81;;;15.59;42.85
69971;BME280;57301;50.328;8.542;2023-05-03T07:17:50;99541.25;;;15.26;43.13
69971;BME280;57301;50.328;8.542;2023-05-03T07:20:16;99543.72;;;15.19;43.76
69971;BME280;57301;50.328;8.542;2023-05-03T07:22:43;99544.06;;;15.76;41.83
69971;BME280;57301;50.328;8.542;2023-05-03T07:25:10;99542.16;;;15.35;42.42
69971;BME280;57301;50.328;8.542;2023-05-03T07:27:37;99541.63;;;15.91;41.21
69971;BME280;57301;50.328;8.542;2023-05-03T07:30:04;99543.28;;;15.84;41.70
69971;BME280;57301;50.328;8.542;2023-05-03T07:32:31;99540.38;;;14.99;41.67
69971;BME280;57301;50.328;8.542;2023-05-03T07:34:58;99545.25;;;15.48;41.74
69971;BME280;57301;50.328;8.542;2023-05-03T07:37:25;99548.47;;;16.28;42.23
69971;BME280;57301;50.328;8.542;2023-05-03T07:39:53;99539.50;;;16.11;41.00
69971;BME280;57301;50.328;8.542;2023-05-03T07:42:19;99548.78;;;15.22;40.95
69971;BME280;57301;50.328;8.542;2023-05-03T07:44:46;99535.41;;;15.91;41.26
69971;BME280;57301;50.328;8.542;2023-05-03T07:47:12;99546.19;;;14.51;43.04
69971;BME280;57301;50.328;8.542;2023-05-03T07:49:39;99545.28;;;15.56;42.03
69971;BME280;57301;50.328;8.542;2023-05-03T07:52:05;99529.47;;;16.37;41.12
69971;BME280;57301;50.328;8.542;2023-05-03T07:54:32;99526.38;;;15.66;43.59
69971;BME280;57301;50.328;8.542;2023-05-03T07:56:59;99528.63;;;15.78;41.13
69971;BME280;57301;50.328;8.542;2023-05-03T07:59:25;99540.50;;;15.68;43.41
69971;BME280;57301;50.328;8.542;2023-05-03T08:01:52;99537.59;;;15.09;41.54
69971;BME280;57301;50.328;8.542;2023-05-03T08:04:19;99540.81;;;15.13;43.78
69971;BME280;57301;50.328;8.542;2023-05-03T08:06:46;99539.66;;;15.41;42.72
69971;BME280;57301;50.328;8.542;2023-05-03T08:09:13;99539.13;;;15.64;40.81
69971;BME280;57301;50.328;8.542;2023-05-03T08:11:40;99531.50;;;15.85;40.12
69971;BME280;57301;50.328;8.542;2023-05-03T08:14:09;99536.19;;;15.49;40.70
69971;BME280;57301;50.328;8.542;2023-05-03T08:16:36;99530.69;;;15.07;40.98
69971;BME280;57301;50.328;8.542;2023-05-03T08:19:03;99530.72;;;14.89;41.48
69971;BME280;57301;50.328;8.542;2023-05-03T08:21:30;99522.44;;;15.00;42.29
69971;BME280;57301;50.328;8.542;2023-05-03T08:23:58;99534.81;;;15.45;41.04
69971;BME280;57301;50.328;8.542;2023-05-03T08:26:26;99526.16;;;14.81;41.29
69971;BME280;57301;50.328;8.542;2023-05-03T08:28:54;99519.22;;;14.78;40.22
69971;BME280;57301;50.328;8.542;2023-05-03T08:31:20;99525.97;;;12.90;43.31
69971;BME280;57301;50.328;8.542;2023-05-03T08:33:47;99524.31;;;14.01;45.01
69971;BME280;57301;50.328;8.542;2023-05-03T08:36:13;99530.09;;;14.06;45.45
69971;BME280;57301;50.328;8.542;2023-05-03T08:38:40;99535.56;;;14.32;42.25
69971;BME280;57301;50.328;8.542;2023-05-03T08:41:18;99534.72;;;14.85;41.50
69971;BME280;57301;50.328;8.542;2023-05-03T08:43:51;99528.28;;;15.21;40.89
69971;BME280;57301;50.328;8.542;2023-05-03T08:46:18;99533.78;;;14.94;41.74
69971;BME280;57301;50.328;8.542;2023-05-03T08:48:49;99525.38;;;15.15;43.53
69971;BME280;57301;50.328;8.542;2023-05-03T08:51:16;99520.41;;;15.02;42.28
69971;BME280;57301;50.328;8.542;2023-05-03T08:53:44;99527.13;;;15.24;41.18
69971;BME280;57301;50.328;8.542;2023-05-03T08:56:18;99534.28;;;15.67;41.86
69971;BME280;57301;50.328;8.542;2023-05-03T08:58:48;99523.06;;;16.38;40.41
69971;BME280;57301;50.328;8.542;2023-05-03T09:01:14;99531.53;;;15.33;41.25
69971;BME280;57301;50.328;8.542;2023-05-03T09:03:48;99522.81;;;15.05;42.09
69971;BME280;57301;50.328;8.542;2023-05-03T09:06:21;99524.91;;;15.19;41.00
69971;BME280;57301;50.328;8.542;2023-05-03T09:08:48;99519.94;;;14.81;41.68
69971;BME280;57301;50.328;8.542;2023-05-03T09:11:23;99525.91;;;14.92;41.94
69971;BME280;57301;50.328;8.542;2023-05-03T09:13:50;99523.81;;;15.30;42.24
69971;BME280;57301;50.328;8.542;2023-05-03T09:16:25;99518.59;;;15.28;40.36
69971;BME280;57301;50.328;8.542;2023-05-03T09:19:12;99513.97;;;15.73;40.31
69971;BME280;57301;50.328;8.542;2023-05-03T09:21:40;99517.94;;;14.83;42.06
69971;BME280;57301;50.328;8.542;2023-05-03T09:24:15;99519.22;;;15.22;41.48
69971;BME280;57301;50.328;8.542;2023-05-03T09:26:42;99513.47;;;15.43;42.73
69971;BME280;57301;50.328;8.542;2023-05-03T09:29:09;99511.16;;;15.82;41.75
69971;BME280;57301;50.328;8.542;2023-05-03T09:31:36;99503.50;;;16.12;41.29
69971;BME280;57301;50.328;8.542;2023-05-03T09:34:23;99506.31;;;15.00;42.49
69971;BME280;57301;50.328;8.542;2023-05-03T09:36:50;99502.31;;;15.04;42.81
69971;BME280;57301;50.328;8.542;2023-05-03T09:39:17;99501.31;;;15.05;41.38
69971;BME280;57301;50.328;8.542;2023-05-03T09:41:45;99495.94;;;15.31;41.34
69971;BME280;57301;50.328;8.542;2023-05-03T09:44:12;99496.28;;;15.62;42.38
69971;BME280;57301;50.328;8.542;2023-05-03T09:46:39;99485.91;;;15.15;41.94
69971;BME280;57301;50.328;8.542;2023-05-03T09:49:05;99479.84;;;15.39;41.99
69971;BME280;57301;50.328;8.542;2023-05-03T09:51:32;99487.66;;;15.93;41.24
69971;BME280;57301;50.328;8.542;2023-05-03T09:53:59;99479.88;;;16.73;41.45
69971;BME280;57301;50.328;8.542;2023-05-03T09:56:25;99473.25;;;16.10;42.05
69971;BME280;57301;50.328;8.542;2023-05-03T09:58:52;99475.88;;;15.85;42.02
69971;BME280;57301;50.328;8.542;2023-05-03T10:01:20;99476.59;;;16.04;40.86
69971;BME280;57301;50.328;8.542;2023-05-03T10:03:50;99467.81;;;16.02;41.17
69971;BME280;57301;50.328;8.542;2023-05-03T10:06:25;99466.25;;;15.75;42.28
69971;BME280;57301;50.328;8.542;2023-05-03T10:09:23;99466.00;;;16.19;39.98
69971;BME280;57301;50.328;8.542;2023-05-03T10:11:53;99474.72;;;15.54;39.67
69971;BME280;57301;50.328;8.542;2023-05-03T10:14:20;99465.88;;;16.36;40.35
69971;BME280;57301;50.328;8.542;2023-05-03T10:16:58;99466.88;;;16.35;41.20
69971;BME280;57301;50.328;8.542;2023-05-03T10:19:33;99466.56;;;16.87;39.81
69971;BME280;57301;50.328;8.542;2023-05-03T10:24:35;99478.06;;;15.90;42.41
69971;BME280;57301;50.328;8.542;2023-05-03T10:27:03;99488.19;;;16.04;41.34
69971;BME280;57301;50.328;8.542;2023-05-03T10:32:03;99478.69;;;17.08;39.84
69971;BME280;57301;50.328;8.542;2023-05-03T10:34:31;99491.31;;;16.75;39.85
69971;BME280;57301;50.328;8.542;2023-05-03T10:37:01;99482.19;;;16.27;40.16
69971;BME280;57301;50.328;8.542;2023-05-03T10:39:29;99479.03;;;16.64;39.62
69971;BME280;57301;50.328;8.542;2023-05-03T10:42:07;99472.81;;;16.80;39.73
69971;BME280;57301;50.328;8.542;2023-05-03T10:47:18;99473.84;;;15.96;39.10
69971;BME280;57301;50.328;8.542;2023-05-03T10:49:45;99471.16;;;15.96;41.39
69971;BME280;57301;50.328;8.542;2023-05-03T10:55:15;99463.41;;;16.76;41.10
69971;BME280;57301;50.328;8.542;2023-05-03T10:57:43;99468.28;;;16.88;37.74
69971;BME280;57301;50.328;8.542;2023-05-03T11:03:01;99461.72;;;16.83;38.59
69971;BME280;57301;50.328;8.542;2023-05-03T11:05:29;99454.13;;;16.78;39.55
69971;BME280;57301;50.328;8.542;2023-05-03T11:10:39;99450.41;;;16.79;40.07
69971;BME280;57301;50.328;8.542;2023-05-03T11:13:07;99442.00;;;16.42;42.00
69971;BME280;57301;50.328;8.542;2023-05-03T11:15:33;99450.56;;;16.53;38.83
69971;BME280;57301;50.328;8.542;2023-05-03T11:18:00;99444.00;;;16.80;38.71
69971;BME280;57301;50.328;8.542;2023-05-03T11:20:27;99435.06;;;16.96;37.87
69971;BME280;57301;50.328;8.542;2023-05-03T11:22:55;99435.38;;;17.57;37.59
69971;BME280;57301;50.328;8.542;2023-05-03T11:25:21;99439.81;;;17.41;36.87
69971;BME280;57301;50.328;8.542;2023-05-03T11:27:48;99426.13;;;17.90;36.32
69971;BME280;57301;50.328;8.542;2023-05-03T11:30:15;99435.06;;;17.91;36.60
69971;BME280;57301;50.328;8.542;2023-05-03T11:32:41;99436.22;;;17.57;37.88
69971;BME280;57301;50.328;8.542;2023-05-03T11:35:09;99433.34;;;17.59;36.36
69971;BME280;57301;50.328;8.542;2023-05-03T11:37:37;99431.00;;;17.56;37.29
69971;BME280;57301;50.328;8.542;2023-05-03T11:40:05;99436.84;;;17.76;38.14
69971;BME280;57301;50.328;8.542;2023-05-03T11:42:33;99439.59;;;17.04;37.73
69971;BME280;57301;50.328;8.542;2023-05-03T11:45:00;99434.94;;;17.37;36.52
69971;BME280;57301;50.328;8.542;2023-05-03T11:47:27;99434.50;;;18.26;34.84
69971;BME280;57301;50.328;8.542;2023-05-03T11:49:55;99425.66;;;18.33;33.37
69971;BME280;57301;50.328;8.542;2023-05-03T11:52:25;99421.81;;;18.27;37.61
69971;BME280;57301;50.328;8.542;2023-05-03T11:54:53;99416.03;;;18.53;37.27
69971;BME280;57301;50.328;8.542;2023-05-03T11:57:19;99411.13;;;18.79;33.63
69971;BME280;57301;50.328;8.542;2023-05-03T11:59:47;99408.13;;;18.51;33.36
69971;BME280;57301;50.328;8.542;2023-05-03T12:02:15;99407.06;;;18.15;34.02
69971;BME280;57301;50.328;8.542;2023-05-03T12:04:42;99405.22;;;18.53;36.26
69971;BME280;57301;50.328;8.542;2023-05-03T12:07:12;99398.25;;;18.96;34.48
69971;BME280;57301;50.328;8.542;2023-05-03T12:09:42;99400.84;;;18.75;35.50
69971;BME280;57301;50.328;8.542;2023-05-03T12:12:22;99404.81;;;18.64;35.11
69971;BME280;57301;50.328;8.542;2023-05-03T12:14:57;99398.06;;;18.22;35.04
69971;BME280;57301;50.328;8.542;2023-05-03T12:20:19;99398.31;;;18.36;33.02
69971;BME280;57301;50.328;8.542;2023-05-03T12:22:51;99402.47;;;18.99;32.54
69971;BME280;57301;50.328;8.542;2023-05-03T12:25:23;99407.31;;;19.03;31.39
69971;BME280;57301;50.328;8.542;2023-05-03T12:27:53;99394.63;;;19.48;32.53
69971;BME280;57301;50.328;8.542;2023-05-03T12:30:41;99390.22;;;20.41;32.46
69971;BME280;57301;50.328;8.542;2023-05-03T12:33:11;99378.09;;;19.58;33.86
69971;BME280;57301;50.328;8.542;2023-05-03T12:35:41;99381.09;;;20.21;32.16
69971;BME280;57301;50.328;8.542;2023-05-03T12:38:12;99370.13;;;21.13;32.88
69971;BME280;57301;50.328;8.542;2023-05-03T12:40:42;99369.34;;;20.91;33.09
69971;BME280;57301;50.328;8.542;2023-05-03T12:43:11;99362.44;;;20.11;32.61
69971;BME280;57301;50.328;8.542;2023-05-03T12:45:39;99363.06;;;20.84;31.72
69971;BME280;57301;50.328;8.542;2023-05-03T12:48:07;99361.81;;;21.62;30.41
69971;BME280;57301;50.328;8.542;2023-05-03T12:50:34;99358.09;;;23.29;28.77
69971;BME280;57301;50.328;8.542;2023-05-03T12:53:04;99354.50;;;23.86;26.53
69971;BME280;57301;50.328;8.542;2023-05-03T12:55:36;99355.28;;;23.49;27.96
69971;BME280;57301;50.328;8.542;2023-05-03T12:58:09;99356.06;;;22.05;29.25
69971;BME280;57301;50.328;8.542;2023-05-03T13:00:38;99352.56;;;22.51;28.23
69971;BME280;57301;50.328;8.542;2023-05-03T13:03:25;99344.97;;;24.02;27.21
69971;BME280;57301;50.328;8.542;2023-05-03T13:05:59;99340.25;;;24.16;25.37
69971;BME280;57301;50.328;8.542;2023-05-03T13:08:29;99332.88;;;23.92;27.30
69971;BME280;57301;50.328;8.542;2023-05-03T13:11:00;99334.38;;;21.37;30.24
69971;BME280;57301;50.328;8.542;2023-05-03T13:13:27;99339.91;;;20.53;29.40
69971;BME280;57301;50.328;8.542;2023-05-03T13:15:54;99328.81;;;21.17;30.62
69971;BME280;57301;50.328;8.542;2023-05-03T13:18:20;99329.69;;;23.56;27.68
69971;BME280;57301;50.328;8.542;2023-05-03T13:20:48;99323.78;;;23.73;27.65
69971;BME280;57301;50.328;8.542;2023-05-03T13:23:15;99308.25;;;23.35;26.48
69971;BME280;57301;50.328;8.542;2023-05-03T13:25:43;99318.81;;;23.63;26.79
69971;BME280;57301;50.328;8.542;2023-05-03T13:28:09;99323.06;;;22.74;27.95
69971;BME280;57301;50.328;8.542;2023-05-03T13:30:36;99320.91;;;23.54;28.36
69971;BME280;57301;50.328;8.542;2023-05-03T13:33:02;99311.59;;;24.63;26.74
69971;BME280;57301;50.328;8.542;2023-05-03T13:35:29;99304.56;;;24.24;27.21